createdAt,value
2022-09-12T00:04:48.651Z,101579.56
2022-09-12T00:09:52.564Z,101570.66
2022-09-12T00:14:56.232Z,101569.41
2022-09-12T00:20:01.763Z,101574.53
2022-09-12T00:25:06.454Z,101571.59
2022-09-12T00:30:10.687Z,101567.31
2022-09-12T00:35:15.754Z,101569.28
2022-09-12T00:40:19.583Z,101565.75
2022-09-12T00:45:28.610Z,101560.47
2022-09-12T00:50:34.470Z,101554.38
2022-09-12T00:55:42.279Z,101552.47
2022-09-12T01:00:47.529Z,101538.31
2022-09-12T01:05:59.941Z,101527.41
2022-09-12T01:11:04.291Z,101529.78
2022-09-12T01:16:09.682Z,101524.31
2022-09-12T01:21:26.543Z,101528.41
2022-09-12T01:27:11.589Z,101525.69
2022-09-12T01:32:26.240Z,101528.97
2022-09-12T01:37:37.124Z,101525.22
2022-09-12T01:42:47.004Z,101512.91
2022-09-12T01:47:58.905Z,101513.59
2022-09-12T01:53:08.591Z,101503.00
2022-09-12T01:58:17.200Z,101504.66
2022-09-12T02:03:25.077Z,101498.47
2022-09-12T02:08:32.608Z,101493.66
2022-09-12T02:13:40.931Z,101489.44
2022-09-12T02:18:48.034Z,101479.69
2022-09-12T02:23:59.071Z,101480.41
2022-09-12T02:29:04.431Z,101481.41
2022-09-12T02:34:23.089Z,101484.00
2022-09-12T02:39:26.957Z,101479.62
2022-09-12T02:44:32.790Z,101475.22
2022-09-12T02:49:38.074Z,101471.72
2022-09-12T02:54:42.122Z,101472.50
2022-09-12T02:59:46.843Z,101470.87
2022-09-12T03:05:11.484Z,101468.38
2022-09-12T03:10:25.725Z,101458.72
2022-09-12T03:15:42.125Z,101463.91
2022-09-12T03:20:56.971Z,101444.63
2022-09-12T03:26:06.327Z,101445.53
2022-09-12T03:31:15.471Z,101446.38
2022-09-12T03:36:24.444Z,101443.84
2022-09-12T03:41:28.103Z,101443.78
2022-09-12T03:46:31.941Z,101444.50
2022-09-12T03:51:37.011Z,101436.03
2022-09-12T03:56:41.570Z,101431.59
2022-09-12T04:01:45.257Z,101431.69
2022-09-12T04:06:50.308Z,101422.06
2022-09-12T04:11:53.983Z,101419.38
2022-09-12T04:16:57.754Z,101411.50
2022-09-12T04:22:02.842Z,101410.63
2022-09-12T04:27:07.892Z,101410.47
2022-09-12T04:32:11.695Z,101409.59
2022-09-12T04:37:16.894Z,101402.56
2022-09-12T04:42:20.582Z,101401.59
2022-09-12T04:47:24.329Z,101412.81
2022-09-12T04:52:29.517Z,101399.78
2022-09-12T04:57:33.226Z,101398.81
2022-09-12T05:02:36.935Z,101400.66
2022-09-12T05:07:42.078Z,101411.09
2022-09-12T05:12:45.732Z,101402.34
2022-09-12T05:17:49.423Z,101404.06
2022-09-12T05:22:55.835Z,101404.84
2022-09-12T05:27:59.478Z,101402.19
2022-09-12T05:33:03.177Z,101402.13
2022-09-12T05:38:08.659Z,101402.81
2022-09-12T05:43:12.472Z,101410.88
2022-09-12T05:48:16.736Z,101412.53
2022-09-12T05:53:21.913Z,101415.22
2022-09-12T05:58:25.600Z,101419.47
2022-09-12T06:03:29.304Z,101427.38
2022-09-12T06:08:36.267Z,101421.97
2022-09-12T06:13:41.354Z,101417.75
2022-09-12T06:18:49.136Z,101421.22
2022-09-12T06:23:54.971Z,101421.31
2022-09-12T06:29:00.984Z,101422.19
2022-09-12T06:34:07.013Z,101415.25
2022-09-12T06:39:14.957Z,101414.53
2022-09-12T06:44:21.277Z,101414.00
2022-09-12T06:49:24.992Z,101415.84
2022-09-12T06:54:30.144Z,101417.66
2022-09-12T06:59:33.828Z,101424.91
2022-09-12T07:04:37.706Z,101421.72
2022-09-12T07:09:42.694Z,101415.00
2022-09-12T07:14:46.396Z,101417.78
2022-09-12T07:19:50.243Z,101406.28
2022-09-12T07:24:55.806Z,101407.34
2022-09-12T07:29:59.967Z,101409.78
2022-09-12T07:35:04.014Z,101405.88
2022-09-12T07:40:10.386Z,101402.13
2022-09-12T07:45:14.233Z,101405.28
2022-09-12T07:50:18.012Z,101409.19
2022-09-12T07:55:23.327Z,101414.09
2022-09-12T08:00:35.799Z,101413.00
2022-09-12T08:05:39.519Z,101403.16
2022-09-12T08:10:44.555Z,101408.19
2022-09-12T08:15:48.417Z,101416.44
2022-09-12T08:20:57.886Z,101423.59
2022-09-12T08:26:06.310Z,101430.19
2022-09-12T08:31:12.893Z,101424.56
2022-09-12T08:36:18.185Z,101419.66
2022-09-12T08:41:30.406Z,101419.47
2022-09-12T08:46:41.470Z,101419.75
2022-09-12T08:51:45.632Z,101419.25
2022-09-12T08:56:50.863Z,101404.69
2022-09-12T09:01:59.083Z,101412.06
2022-09-12T09:07:17.798Z,101409.72
2022-09-12T09:12:31.010Z,101403.28
2022-09-12T09:17:40.120Z,101401.91
2022-09-12T09:22:47.484Z,101390.78
2022-09-12T09:27:59.596Z,101393.63
2022-09-12T09:33:05.945Z,101380.94
2022-09-12T09:38:23.414Z,101384.88
2022-09-12T09:43:29.148Z,101382.66
2022-09-12T09:48:35.075Z,101380.91
2022-09-12T09:53:46.170Z,101363.66
2022-09-12T09:58:51.338Z,101360.25
2022-09-12T10:03:56.497Z,101357.59
2022-09-12T10:09:18.758Z,101361.66
2022-09-12T10:14:36.790Z,101348.87
2022-09-12T10:19:41.248Z,101353.53
2022-09-12T10:24:52.311Z,101347.16
2022-09-12T10:30:03.210Z,101325.25
2022-09-12T10:35:10.167Z,101339.03
2022-09-12T10:40:25.316Z,101327.53
2022-09-12T10:45:33.188Z,101305.31
2022-09-12T10:50:41.328Z,101312.19
2022-09-12T10:56:01.003Z,101300.69
2022-09-12T11:01:17.729Z,101301.47
2022-09-12T11:06:31.389Z,101286.56
2022-09-12T11:11:51.421Z,101288.41
2022-09-12T11:17:05.758Z,101293.81
2022-09-12T11:22:23.473Z,101279.12
2022-09-12T11:27:45.474Z,101274.00
2022-09-12T11:33:25.028Z,101272.25
2022-09-12T11:38:50.831Z,101285.31
2022-09-12T11:43:59.463Z,101276.84
2022-09-12T11:49:15.484Z,101269.75
2022-09-12T11:54:24.966Z,101266.53
2022-09-12T11:59:36.220Z,101260.56
2022-09-12T12:04:49.851Z,101262.84
2022-09-12T12:09:55.123Z,101260.53
2022-09-12T12:14:59.983Z,101259.94
2022-09-12T12:20:09.843Z,101264.13
2022-09-12T12:25:38.982Z,101259.47
2022-09-12T12:31:05.662Z,101253.66
2022-09-12T12:36:29.417Z,101243.13
2022-09-12T12:41:46.366Z,101242.78
2022-09-12T12:47:16.759Z,101231.59
2022-09-12T12:52:22.293Z,101237.25
2022-09-12T12:57:34.482Z,101237.78
2022-09-12T13:02:42.305Z,101218.41
2022-09-12T13:07:48.645Z,101205.63
2022-09-12T13:12:53.679Z,101207.53
2022-09-12T13:18:02.319Z,101204.72
2022-09-12T13:23:07.603Z,101197.25
2022-09-12T13:28:18.947Z,101193.03
2022-09-12T13:33:31.004Z,101179.87
2022-09-12T13:38:46.030Z,101187.72
2022-09-12T13:43:50.718Z,101176.53
2022-09-12T13:48:55.117Z,101162.50
2022-09-12T13:54:03.391Z,101174.22
2022-09-12T13:59:12.894Z,101172.72
2022-09-12T14:04:37.670Z,101175.50
2022-09-12T14:09:45.538Z,101158.03
2022-09-12T14:14:52.077Z,101147.25
2022-09-12T14:19:59.434Z,101137.44
2022-09-12T14:25:05.460Z,101118.91
2022-09-12T14:30:21.280Z,101111.25
2022-09-12T14:35:25.218Z,101122.75
2022-09-12T14:40:31.393Z,101123.50
2022-09-12T14:45:35.224Z,101119.31
2022-09-12T14:50:39.534Z,101113.53
2022-09-12T14:55:47.400Z,101110.12
2022-09-12T15:01:00.107Z,101109.38
2022-09-12T15:06:05.673Z,101099.44
2022-09-12T15:11:10.718Z,101106.06
2022-09-12T15:16:14.759Z,101093.50
2022-09-12T15:21:21.355Z,101087.81
2022-09-12T15:26:30.610Z,101088.22
2022-09-12T15:31:34.477Z,101091.31
2022-09-12T15:36:38.160Z,101092.56
2022-09-12T15:41:43.449Z,101086.16
2022-09-12T15:46:47.832Z,101084.47
2022-09-12T15:51:51.527Z,101089.31
2022-09-12T15:56:56.596Z,101066.06
2022-09-12T16:02:00.367Z,101060.00
2022-09-12T16:07:04.912Z,101078.69
2022-09-12T16:12:10.846Z,101069.59
2022-09-12T16:17:14.927Z,101064.25
2022-09-12T16:22:18.608Z,101057.25
2022-09-12T16:27:23.754Z,101046.94
2022-09-12T16:32:27.789Z,101044.84
2022-09-12T16:37:32.311Z,101040.31
2022-09-12T16:42:39.693Z,101028.72
2022-09-12T16:47:46.913Z,101017.53
2022-09-12T16:52:50.730Z,101022.69
2022-09-12T16:57:55.788Z,101002.38
2022-09-12T17:03:00.531Z,100998.22
2022-09-12T17:08:04.636Z,100986.31
2022-09-12T17:13:09.907Z,100957.38
2022-09-12T17:18:13.584Z,100980.78
2022-09-12T17:23:18.102Z,100983.91
2022-09-12T17:28:23.156Z,100972.72
2022-09-12T17:33:27.594Z,100974.97
2022-09-12T17:38:34.702Z,100979.63
2022-09-12T17:43:40.063Z,100973.69
2022-09-12T17:48:43.734Z,100958.03
2022-09-12T17:53:47.714Z,100968.03
2022-09-12T17:58:52.827Z,100969.13
2022-09-12T18:03:57.139Z,100969.50
2022-09-12T18:09:02.374Z,100972.44
2022-09-12T18:14:09.612Z,100985.94
2022-09-12T18:19:15.614Z,100976.47
2022-09-12T18:24:19.502Z,100990.81
2022-09-12T18:29:24.775Z,100988.41
2022-09-12T18:34:28.548Z,100986.06
2022-09-12T18:39:32.494Z,100997.78
2022-09-12T18:44:37.627Z,100990.97
2022-09-12T18:49:41.398Z,100983.16
2022-09-12T18:54:45.117Z,100975.44
2022-09-12T18:59:50.205Z,100977.28
2022-09-12T19:04:54.004Z,100965.06
2022-09-12T19:09:57.687Z,100954.66
2022-09-12T19:15:03.855Z,100948.59
2022-09-12T19:20:07.985Z,100960.09
2022-09-12T19:25:11.805Z,100953.09
2022-09-12T19:30:16.933Z,100947.88
2022-09-12T19:35:20.866Z,100957.59
2022-09-12T19:40:24.587Z,100959.44
2022-09-12T19:45:29.772Z,100963.84
2022-09-12T19:50:34.143Z,100960.41
2022-09-12T19:55:38.166Z,100951.63
2022-09-12T20:00:43.251Z,100942.84
2022-09-12T20:05:47.124Z,100935.84
2022-09-12T20:10:55.058Z,100946.41
2022-09-12T20:16:08.807Z,100950.78
2022-09-12T20:21:14.633Z,100939.38
2022-09-12T20:26:20.219Z,100934.12
2022-09-12T20:31:25.784Z,100934.12
2022-09-12T20:36:29.631Z,100931.47
2022-09-12T20:41:36.380Z,100930.56
2022-09-12T20:46:41.667Z,100925.28
2022-09-12T20:51:45.534Z,100944.56
2022-09-12T20:56:49.331Z,100929.66
2022-09-12T21:01:54.506Z,100915.59
2022-09-12T21:06:58.266Z,100919.09
2022-09-12T21:12:02.110Z,100935.72
2022-09-12T21:17:07.352Z,100954.06
2022-09-12T21:22:11.080Z,100954.94
2022-09-12T21:27:14.766Z,100964.59
2022-09-12T21:32:19.960Z,100963.72
2022-09-12T21:37:23.611Z,100956.72
2022-09-12T21:42:27.704Z,100964.62
2022-09-12T21:47:32.831Z,100949.72
2022-09-12T21:52:37.064Z,100962.03
2022-09-12T21:57:40.763Z,100956.75
2022-09-12T22:02:46.441Z,100962.87
2022-09-12T22:07:50.108Z,100960.25
2022-09-12T22:12:54.066Z,100956.75
2022-09-12T22:17:59.806Z,100962.87
2022-09-12T22:23:24.583Z,100958.50
2022-09-12T22:28:31.828Z,100956.75
2022-09-12T22:33:37.102Z,100947.97
2022-09-12T22:38:40.943Z,100929.56
2022-09-12T22:43:44.591Z,100924.28
2022-09-12T22:48:49.656Z,100919.00
2022-09-12T22:53:53.765Z,100921.59
2022-09-12T22:58:57.540Z,100925.94
2022-09-12T23:04:03.479Z,100907.56
2022-09-12T23:09:07.169Z,100914.53
2022-09-12T23:14:11.015Z,100898.75
2022-09-12T23:19:16.036Z,100901.34
2022-09-12T23:24:19.876Z,100893.44
2022-09-12T23:29:23.710Z,100889.97
2022-09-12T23:34:29.259Z,100887.31
2022-09-12T23:39:32.955Z,100892.56
2022-09-12T23:44:36.639Z,100884.66
2022-09-12T23:49:41.659Z,100882.91
2022-09-12T23:54:45.419Z,100876.78
2022-09-12T23:59:49.306Z,100882.88
